createdAt,value
2022-08-22T00:02:04.624Z,15.60
2022-08-22T00:04:38.753Z,15.60
2022-08-22T00:07:16.085Z,15.60
2022-08-22T00:09:59.606Z,15.60
2022-08-22T00:12:44.985Z,15.50
2022-08-22T00:15:16.788Z,15.50
2022-08-22T00:18:11.123Z,15.50
2022-08-22T00:21:03.500Z,15.50
2022-08-22T00:23:48.075Z,15.50
2022-08-22T00:26:33.870Z,15.40
2022-08-22T00:29:06.964Z,15.30
2022-08-22T00:31:37.707Z,15.30
2022-08-22T00:34:07.383Z,15.40
2022-08-22T00:36:51.298Z,15.40
2022-08-22T00:39:18.270Z,15.50
2022-08-22T00:42:03.879Z,15.50
2022-08-22T00:44:30.588Z,15.40
2022-08-22T00:47:00.452Z,15.40
2022-08-22T00:49:31.892Z,15.40
2022-08-22T00:52:04.968Z,15.40
2022-08-22T00:54:34.744Z,15.50
2022-08-22T00:57:07.588Z,15.40
2022-08-22T00:59:43.930Z,15.50
2022-08-22T01:02:13.807Z,15.40
2022-08-22T01:04:47.533Z,15.50
2022-08-22T01:07:30.570Z,15.50
2022-08-22T01:10:28.153Z,15.50
2022-08-22T01:13:15.143Z,15.50
2022-08-22T01:15:42.565Z,15.50
2022-08-22T01:18:09.356Z,15.40
2022-08-22T01:20:36.051Z,15.40
2022-08-22T01:23:08.929Z,15.50
2022-08-22T01:25:54.054Z,15.50
2022-08-22T01:28:38.942Z,15.50
2022-08-22T01:31:17.029Z,15.50
2022-08-22T01:33:46.489Z,15.50
2022-08-22T01:36:19.233Z,15.50
2022-08-22T01:39:04.814Z,15.60
2022-08-22T01:41:37.549Z,15.50
2022-08-22T01:44:10.308Z,15.50
2022-08-22T01:46:57.219Z,15.50
2022-08-22T01:49:30.170Z,15.50
2022-08-22T01:52:04.273Z,15.40
2022-08-22T01:54:33.945Z,15.50
2022-08-22T01:57:02.598Z,15.50
2022-08-22T01:59:34.927Z,15.50
2022-08-22T02:02:11.900Z,15.50
2022-08-22T02:04:41.158Z,15.50
2022-08-22T02:07:31.980Z,15.50
2022-08-22T02:10:11.115Z,15.60
2022-08-22T02:12:41.388Z,15.60
2022-08-22T02:15:14.713Z,15.60
2022-08-22T02:18:14.068Z,15.60
2022-08-22T02:20:59.419Z,15.60
2022-08-22T02:23:48.117Z,15.50
2022-08-22T02:26:17.688Z,15.50
2022-08-22T02:28:58.003Z,15.50
2022-08-22T02:31:37.132Z,15.50
2022-08-22T02:34:17.097Z,15.50
2022-08-22T02:36:47.442Z,15.60
2022-08-22T02:39:32.998Z,15.60
2022-08-22T02:42:06.302Z,15.60
2022-08-22T02:44:39.824Z,15.60
2022-08-22T02:47:17.301Z,15.60
2022-08-22T02:49:44.329Z,15.60
2022-08-22T02:52:11.188Z,15.60
2022-08-22T02:54:56.928Z,15.50
2022-08-22T02:57:44.685Z,15.50
2022-08-22T03:00:31.742Z,15.60
2022-08-22T03:02:59.705Z,15.60
2022-08-22T03:05:40.570Z,15.70
2022-08-22T03:08:07.443Z,15.70
2022-08-22T03:10:38.104Z,15.70
2022-08-22T03:13:17.518Z,15.70
2022-08-22T03:15:55.175Z,15.70
2022-08-22T03:18:27.504Z,15.80
2022-08-22T03:20:54.338Z,15.80
2022-08-22T03:23:42.591Z,15.80
2022-08-22T03:26:18.685Z,15.80
2022-08-22T03:28:59.176Z,15.90
2022-08-22T03:31:28.371Z,15.90
2022-08-22T03:34:13.943Z,15.80
2022-08-22T03:36:45.044Z,15.80
2022-08-22T03:39:22.429Z,15.80
2022-08-22T03:42:18.777Z,15.80
2022-08-22T03:44:51.464Z,15.70
2022-08-22T03:47:36.947Z,15.70
2022-08-22T03:50:18.987Z,15.70
2022-08-22T03:53:07.620Z,15.70
2022-08-22T03:56:00.890Z,15.70
2022-08-22T03:58:30.595Z,15.70
2022-08-22T04:01:16.252Z,15.60
2022-08-22T04:03:42.945Z,15.60
2022-08-22T04:06:13.082Z,15.60
2022-08-22T04:08:43.890Z,15.60
2022-08-22T04:11:15.692Z,15.50
2022-08-22T04:13:54.343Z,15.50
2022-08-22T04:16:33.335Z,15.50
2022-08-22T04:19:18.738Z,15.40
2022-08-22T04:22:08.757Z,15.40
2022-08-22T04:24:38.524Z,15.30
2022-08-22T04:27:05.222Z,15.30
2022-08-22T04:29:35.431Z,15.30
2022-08-22T04:32:09.778Z,15.30
2022-08-22T04:34:48.576Z,15.20
2022-08-22T04:37:30.575Z,15.20
2022-08-22T04:39:59.349Z,15.30
2022-08-22T04:42:33.290Z,15.30
2022-08-22T04:45:20.435Z,15.20
2022-08-22T04:47:53.955Z,15.30
2022-08-22T04:50:43.190Z,15.30
2022-08-22T04:53:18.638Z,15.30
2022-08-22T04:55:54.321Z,15.30
2022-08-22T04:58:31.681Z,15.30
2022-08-22T05:01:04.725Z,15.30
2022-08-22T05:03:33.234Z,15.30
2022-08-22T05:06:01.776Z,15.30
2022-08-22T05:08:31.863Z,15.30
2022-08-22T05:11:00.966Z,15.30
2022-08-22T05:13:32.606Z,15.30
2022-08-22T05:16:03.305Z,15.30
2022-08-22T05:18:38.545Z,15.30
2022-08-22T05:21:07.596Z,15.40
2022-08-22T05:23:39.520Z,15.40
2022-08-22T05:26:07.260Z,15.40
2022-08-22T05:28:36.069Z,15.40
2022-08-22T05:31:04.860Z,15.40
2022-08-22T05:33:33.589Z,15.40
2022-08-22T05:36:11.359Z,15.40
2022-08-22T05:38:58.293Z,15.40
2022-08-22T05:41:26.863Z,15.50
2022-08-22T05:43:54.460Z,15.50
2022-08-22T05:46:26.988Z,15.60
2022-08-22T05:48:58.865Z,15.60
2022-08-22T05:51:30.035Z,15.70
2022-08-22T05:54:12.584Z,15.70
2022-08-22T05:56:42.323Z,15.70
2022-08-22T05:59:27.748Z,15.70
2022-08-22T06:01:54.484Z,15.70
2022-08-22T06:04:27.467Z,15.90
2022-08-22T06:07:06.808Z,16.00
2022-08-22T06:09:48.670Z,16.10
2022-08-22T06:12:21.801Z,16.30
2022-08-22T06:14:49.224Z,16.40
2022-08-22T06:17:19.741Z,16.50
2022-08-22T06:19:47.789Z,16.70
2022-08-22T06:22:18.726Z,16.70
2022-08-22T06:24:46.195Z,16.80
2022-08-22T06:27:14.326Z,17.00
2022-08-22T06:29:44.839Z,17.10
2022-08-22T06:32:13.544Z,17.20
2022-08-22T06:34:41.668Z,17.30
2022-08-22T06:37:10.884Z,17.40
2022-08-22T06:39:40.844Z,17.40
2022-08-22T06:42:17.041Z,17.60
2022-08-22T06:44:46.533Z,17.70
2022-08-22T06:47:16.232Z,17.80
2022-08-22T06:49:44.153Z,17.80
2022-08-22T06:52:23.388Z,17.80
2022-08-22T06:54:53.959Z,17.90
2022-08-22T06:57:42.040Z,18.00
2022-08-22T07:00:11.745Z,18.10
2022-08-22T07:02:40.887Z,18.20
2022-08-22T07:05:13.824Z,18.30
2022-08-22T07:07:40.574Z,18.40
2022-08-22T07:10:10.538Z,18.50
2022-08-22T07:12:39.107Z,18.40
2022-08-22T07:15:11.034Z,18.30
2022-08-22T07:17:46.745Z,18.20
2022-08-22T07:20:17.278Z,18.20
2022-08-22T07:22:54.059Z,18.30
2022-08-22T07:25:21.386Z,18.50
2022-08-22T07:28:05.991Z,18.50
2022-08-22T07:30:44.629Z,18.50
2022-08-22T07:33:39.188Z,18.50
2022-08-22T07:36:28.395Z,18.50
2022-08-22T07:39:12.376Z,18.70
2022-08-22T07:41:52.313Z,18.70
2022-08-22T07:44:22.422Z,18.80
2022-08-22T07:47:00.643Z,18.80
2022-08-22T07:49:30.590Z,18.90
2022-08-22T07:52:08.094Z,19.00
2022-08-22T07:54:34.775Z,19.10
2022-08-22T07:57:04.584Z,19.20
2022-08-22T07:59:33.299Z,19.30
2022-08-22T08:02:00.776Z,19.30
2022-08-22T08:04:34.886Z,19.40
2022-08-22T08:07:05.844Z,19.60
2022-08-22T08:09:34.601Z,19.60
2022-08-22T08:12:03.808Z,19.50
2022-08-22T08:14:30.942Z,19.60
2022-08-22T08:16:57.594Z,19.70
2022-08-22T08:19:25.368Z,19.90
2022-08-22T08:21:54.196Z,19.90
2022-08-22T08:24:24.288Z,19.90
2022-08-22T08:27:14.830Z,19.90
2022-08-22T08:29:45.386Z,19.90
2022-08-22T08:32:13.230Z,20.00
2022-08-22T08:34:42.474Z,20.10
2022-08-22T08:37:20.386Z,20.20
2022-08-22T08:39:51.882Z,20.30
2022-08-22T08:42:21.611Z,20.50
2022-08-22T08:44:51.376Z,20.50
2022-08-22T08:47:18.249Z,20.50
2022-08-22T08:50:03.920Z,20.50
2022-08-22T08:52:33.623Z,20.60
2022-08-22T08:55:22.566Z,20.60
2022-08-22T08:57:59.230Z,20.60
2022-08-22T09:00:45.970Z,20.70
2022-08-22T09:03:30.539Z,20.80
2022-08-22T09:06:13.059Z,20.80
2022-08-22T09:09:07.590Z,20.80
2022-08-22T09:11:53.955Z,20.60
2022-08-22T09:14:21.382Z,20.70
2022-08-22T09:16:51.897Z,20.80
2022-08-22T09:19:24.765Z,20.70
2022-08-22T09:22:07.291Z,20.70
2022-08-22T09:25:00.264Z,20.80
2022-08-22T09:27:41.702Z,20.90
2022-08-22T09:30:11.565Z,20.90
2022-08-22T09:32:38.534Z,21.10
2022-08-22T09:35:13.317Z,21.40
2022-08-22T09:37:58.749Z,21.50
2022-08-22T09:40:30.735Z,21.40
2022-08-22T09:43:01.720Z,21.50
2022-08-22T09:45:34.788Z,21.70
2022-08-22T09:48:09.683Z,21.60
2022-08-22T09:50:36.411Z,21.60
2022-08-22T09:53:11.517Z,21.70
2022-08-22T09:55:50.288Z,21.50
2022-08-22T09:58:27.906Z,21.60
2022-08-22T10:00:57.721Z,21.70
2022-08-22T10:03:33.124Z,21.80
2022-08-22T10:06:06.819Z,21.80
2022-08-22T10:08:39.261Z,21.80
2022-08-22T10:11:09.077Z,21.80
2022-08-22T10:13:42.213Z,21.80
2022-08-22T10:16:18.249Z,21.90
2022-08-22T10:18:53.859Z,22.00
2022-08-22T10:21:27.701Z,22.10
2022-08-22T10:24:07.866Z,22.30
2022-08-22T10:26:40.107Z,22.50
2022-08-22T10:29:14.910Z,22.50
2022-08-22T10:31:59.382Z,22.50
2022-08-22T10:34:42.951Z,22.50
2022-08-22T10:37:15.719Z,22.60
2022-08-22T10:40:00.320Z,22.60
2022-08-22T10:42:34.157Z,22.60
2022-08-22T10:45:23.986Z,22.50
2022-08-22T10:48:08.929Z,22.50
2022-08-22T10:50:43.161Z,22.50
2022-08-22T10:53:30.662Z,22.50
2022-08-22T10:56:03.763Z,22.80
2022-08-22T10:58:33.711Z,23.00
2022-08-22T11:01:38.136Z,22.90
2022-08-22T11:04:16.193Z,23.10
2022-08-22T11:06:54.040Z,22.90
2022-08-22T11:09:37.447Z,23.00
2022-08-22T11:12:13.111Z,23.00
2022-08-22T11:14:59.096Z,23.20
2022-08-22T11:17:30.893Z,23.10
2022-08-22T11:20:08.950Z,23.00
2022-08-22T11:22:42.073Z,23.20
2022-08-22T11:25:11.218Z,23.30
2022-08-22T11:27:50.822Z,23.30
2022-08-22T11:30:25.936Z,23.40
2022-08-22T11:33:00.056Z,23.60
2022-08-22T11:35:45.130Z,23.70
2022-08-22T11:38:25.823Z,23.80
2022-08-22T11:40:59.441Z,23.90
2022-08-22T11:43:32.860Z,23.80
2022-08-22T11:46:14.319Z,23.70
2022-08-22T11:48:58.828Z,23.70
2022-08-22T11:51:51.031Z,23.70
2022-08-22T11:54:31.182Z,23.90
2022-08-22T11:57:05.789Z,23.70
2022-08-22T11:59:43.281Z,23.70
2022-08-22T12:02:26.163Z,23.80
2022-08-22T12:04:55.284Z,23.60
2022-08-22T12:07:28.166Z,23.80
2022-08-22T12:09:59.277Z,24.00
2022-08-22T12:12:26.093Z,24.20
2022-08-22T12:15:11.670Z,24.10
2022-08-22T12:18:02.073Z,24.10
2022-08-22T12:20:32.309Z,23.90
2022-08-22T12:23:17.795Z,23.90
2022-08-22T12:25:50.515Z,23.80
2022-08-22T12:28:30.082Z,24.00
2022-08-22T12:31:02.811Z,24.10
2022-08-22T12:33:29.651Z,24.20
2022-08-22T12:36:17.949Z,24.20
2022-08-22T12:38:54.136Z,24.20
2022-08-22T12:41:48.375Z,24.10
2022-08-22T12:44:18.225Z,24.10
2022-08-22T12:47:04.456Z,24.10
2022-08-22T12:49:41.547Z,24.00
2022-08-22T12:52:30.921Z,24.10
2022-08-22T12:55:18.279Z,24.30
2022-08-22T12:58:04.024Z,24.30
2022-08-22T13:00:34.523Z,24.20
2022-08-22T13:03:08.287Z,24.30
2022-08-22T13:05:40.799Z,24.30
2022-08-22T13:08:11.321Z,24.50
2022-08-22T13:10:44.814Z,24.40
2022-08-22T13:13:14.099Z,24.30
2022-08-22T13:15:53.465Z,24.50
2022-08-22T13:18:29.950Z,24.30
2022-08-22T13:20:58.814Z,24.30
2022-08-22T13:23:28.623Z,24.30
2022-08-22T13:26:01.361Z,24.40
2022-08-22T13:28:28.798Z,24.40
2022-08-22T13:30:57.867Z,24.40
2022-08-22T13:33:33.062Z,24.50
2022-08-22T13:36:12.843Z,24.60
2022-08-22T13:38:46.355Z,24.70
2022-08-22T13:41:18.849Z,25.00
2022-08-22T13:43:53.914Z,25.10
2022-08-22T13:46:26.201Z,25.10
2022-08-22T13:49:00.810Z,25.10
2022-08-22T13:51:27.903Z,25.20
2022-08-22T13:54:02.811Z,25.10
2022-08-22T13:56:52.868Z,25.10
2022-08-22T13:59:54.847Z,24.90
2022-08-22T14:02:34.292Z,24.90
2022-08-22T14:05:04.277Z,24.70
2022-08-22T14:07:37.194Z,24.50
2022-08-22T14:10:14.933Z,24.50
2022-08-22T14:12:50.100Z,24.40
2022-08-22T14:15:33.950Z,24.20
2022-08-22T14:18:14.266Z,24.20
2022-08-22T14:20:42.098Z,24.10
2022-08-22T14:23:13.519Z,24.10
2022-08-22T14:25:41.446Z,24.10
2022-08-22T14:28:29.492Z,24.00
2022-08-22T14:31:01.039Z,24.00
2022-08-22T14:33:40.001Z,24.10
2022-08-22T14:36:31.016Z,24.10
2022-08-22T14:39:01.932Z,24.10
2022-08-22T14:41:59.416Z,24.10
2022-08-22T14:44:37.681Z,24.10
2022-08-22T14:47:30.334Z,24.10
2022-08-22T14:49:56.261Z,24.20
2022-08-22T14:52:29.510Z,24.20
2022-08-22T14:55:14.710Z,24.30
2022-08-22T14:57:45.366Z,24.30
2022-08-22T15:00:13.017Z,24.30
2022-08-22T15:02:41.821Z,24.50
2022-08-22T15:05:13.565Z,24.60
2022-08-22T15:07:40.483Z,24.50
2022-08-22T15:10:27.292Z,24.50
2022-08-22T15:13:00.350Z,24.70
2022-08-22T15:15:52.790Z,24.80
2022-08-22T15:18:33.716Z,24.90
2022-08-22T15:21:11.351Z,24.80
2022-08-22T15:23:45.453Z,24.60
2022-08-22T15:26:39.929Z,24.50
2022-08-22T15:29:27.097Z,24.50
2022-08-22T15:31:58.555Z,24.40
2022-08-22T15:34:45.976Z,24.20
2022-08-22T15:37:16.543Z,24.10
2022-08-22T15:40:03.076Z,24.00
2022-08-22T15:42:45.986Z,24.00
2022-08-22T15:45:22.954Z,23.90
2022-08-22T15:47:52.270Z,23.90
2022-08-22T15:50:32.493Z,23.90
2022-08-22T15:53:04.799Z,23.80
2022-08-22T15:55:34.390Z,23.80
2022-08-22T15:58:04.543Z,23.80
2022-08-22T16:00:33.267Z,23.80
2022-08-22T16:03:03.881Z,23.80
2022-08-22T16:05:56.906Z,23.70
2022-08-22T16:08:26.808Z,23.70
2022-08-22T16:11:13.806Z,23.50
2022-08-22T16:13:42.487Z,23.40
2022-08-22T16:16:11.641Z,23.30
2022-08-22T16:18:39.390Z,23.10
2022-08-22T16:21:10.496Z,23.00
2022-08-22T16:23:46.433Z,22.80
2022-08-22T16:26:16.609Z,22.70
2022-08-22T16:29:04.854Z,22.70
2022-08-22T16:31:42.782Z,22.60
2022-08-22T16:34:25.098Z,22.60
2022-08-22T16:37:08.627Z,22.50
2022-08-22T16:39:38.430Z,22.50
2022-08-22T16:42:14.895Z,22.30
2022-08-22T16:45:00.432Z,22.30
2022-08-22T16:47:30.185Z,22.20
2022-08-22T16:50:00.144Z,22.10
2022-08-22T16:52:26.889Z,22.00
2022-08-22T16:54:58.990Z,22.00
2022-08-22T16:57:31.400Z,21.90
2022-08-22T17:00:11.132Z,21.80
2022-08-22T17:02:51.705Z,21.70
2022-08-22T17:05:29.319Z,21.60
2022-08-22T17:08:00.441Z,21.60
2022-08-22T17:10:35.173Z,21.60
2022-08-22T17:13:32.834Z,21.60
2022-08-22T17:16:02.920Z,21.50
2022-08-22T17:18:38.905Z,21.40
2022-08-22T17:21:25.785Z,21.30
2022-08-22T17:24:31.674Z,21.30
2022-08-22T17:27:00.489Z,21.20
2022-08-22T17:29:37.959Z,21.10
2022-08-22T17:32:14.583Z,21.10
2022-08-22T17:34:50.626Z,21.10
2022-08-22T17:37:36.351Z,21.10
2022-08-22T17:40:03.379Z,21.00
2022-08-22T17:42:49.280Z,21.00
2022-08-22T17:45:28.334Z,21.00
2022-08-22T17:48:01.043Z,21.00
2022-08-22T17:50:34.340Z,20.90
2022-08-22T17:53:19.856Z,20.90
2022-08-22T17:56:13.295Z,20.80
2022-08-22T17:58:44.034Z,20.80
2022-08-22T18:01:19.811Z,20.70
2022-08-22T18:03:51.479Z,20.70
2022-08-22T18:06:20.016Z,20.70
2022-08-22T18:11:44.028Z,20.70
2022-08-22T18:14:23.650Z,20.60
2022-08-22T18:16:52.270Z,20.60
2022-08-22T18:19:37.830Z,20.50
2022-08-22T18:22:11.051Z,20.40
2022-08-22T18:24:43.554Z,20.30
2022-08-22T18:27:34.632Z,20.30
2022-08-22T18:30:05.347Z,20.30
2022-08-22T18:32:47.736Z,20.20
2022-08-22T18:35:31.358Z,20.20
2022-08-22T18:38:02.318Z,20.10
2022-08-22T18:40:50.137Z,20.10
2022-08-22T18:43:18.676Z,20.00
2022-08-22T18:45:45.421Z,19.90
2022-08-22T18:48:21.284Z,19.90
2022-08-22T18:50:49.220Z,19.80
2022-08-22T18:53:34.734Z,19.80
2022-08-22T18:56:08.677Z,19.80
2022-08-22T18:58:46.106Z,19.80
2022-08-22T19:01:42.125Z,19.70
2022-08-22T19:04:20.598Z,19.60
2022-08-22T19:06:56.616Z,19.50
2022-08-22T19:09:35.894Z,19.50
2022-08-22T19:12:21.748Z,19.40
2022-08-22T19:14:54.552Z,19.40
2022-08-22T19:17:24.422Z,19.40
2022-08-22T19:20:16.015Z,19.30
2022-08-22T19:22:43.325Z,19.30
2022-08-22T19:25:12.665Z,19.30
2022-08-22T19:27:41.504Z,19.20
2022-08-22T19:30:28.254Z,19.20
2022-08-22T19:32:59.161Z,19.10
2022-08-22T19:35:29.104Z,19.10
2022-08-22T19:37:57.869Z,19.10
2022-08-22T19:40:43.340Z,19.10
2022-08-22T19:43:28.088Z,19.10
2022-08-22T19:45:56.019Z,19.00
2022-08-22T19:48:27.993Z,19.00
2022-08-22T19:51:27.260Z,19.00
2022-08-22T19:54:16.497Z,18.90
2022-08-22T19:56:47.533Z,18.70
2022-08-22T19:59:20.558Z,18.70
2022-08-22T20:02:00.514Z,18.70
2022-08-22T20:04:30.436Z,18.70
2022-08-22T20:07:03.249Z,18.80
2022-08-22T20:09:47.172Z,18.80
2022-08-22T20:12:29.605Z,18.80
2022-08-22T20:14:56.395Z,18.80
2022-08-22T20:17:26.217Z,18.80
2022-08-22T20:20:17.342Z,18.80
2022-08-22T20:22:53.417Z,18.70
2022-08-22T20:25:41.682Z,18.70
2022-08-22T20:28:25.070Z,18.60
2022-08-22T20:30:56.373Z,18.60
2022-08-22T20:33:32.393Z,18.60
2022-08-22T20:36:02.044Z,18.60
2022-08-22T20:38:34.840Z,18.60
2022-08-22T20:41:11.731Z,18.60
2022-08-22T20:43:41.916Z,18.60
2022-08-22T20:46:29.968Z,18.60
2022-08-22T20:48:57.218Z,18.60
2022-08-22T20:51:25.405Z,18.50
2022-08-22T20:54:10.316Z,18.50
2022-08-22T20:56:52.845Z,18.50
2022-08-22T20:59:23.503Z,18.50
2022-08-22T21:01:53.568Z,18.50
2022-08-22T21:04:21.246Z,18.40
2022-08-22T21:06:57.677Z,18.40
2022-08-22T21:09:43.082Z,18.40
2022-08-22T21:12:10.485Z,18.40
2022-08-22T21:14:44.275Z,18.40
2022-08-22T21:17:39.204Z,18.40
2022-08-22T21:20:19.516Z,18.40
2022-08-22T21:22:46.269Z,18.30
2022-08-22T21:25:13.027Z,18.30
2022-08-22T21:27:39.739Z,18.30
2022-08-22T21:30:08.214Z,18.30
2022-08-22T21:32:34.953Z,18.20
2022-08-22T21:35:02.381Z,18.20
2022-08-22T21:37:29.129Z,18.10
2022-08-22T21:40:07.846Z,18.10
2022-08-22T21:42:42.429Z,18.10
2022-08-22T21:45:09.235Z,18.00
2022-08-22T21:47:37.234Z,18.00
2022-08-22T21:50:07.031Z,18.00
2022-08-22T21:52:35.967Z,17.90
2022-08-22T21:55:34.866Z,17.90
2022-08-22T21:58:34.950Z,17.80
2022-08-22T22:01:20.779Z,17.80
2022-08-22T22:03:51.652Z,17.80
2022-08-22T22:06:18.369Z,17.70
2022-08-22T22:08:45.122Z,17.70
2022-08-22T22:11:14.074Z,17.70
2022-08-22T22:13:41.340Z,17.70
2022-08-22T22:16:09.836Z,17.70
2022-08-22T22:18:37.412Z,17.70
2022-08-22T22:21:04.890Z,17.80
2022-08-22T22:23:31.765Z,17.80
2022-08-22T22:26:01.118Z,17.80
2022-08-22T22:28:30.636Z,17.80
2022-08-22T22:30:57.320Z,17.80
2022-08-22T22:33:26.549Z,17.80
2022-08-22T22:35:54.389Z,17.80
2022-08-22T22:38:24.078Z,17.80
2022-08-22T22:40:51.575Z,17.80
2022-08-22T22:43:18.900Z,17.80
2022-08-22T22:45:45.654Z,17.80
2022-08-22T22:48:17.512Z,17.80
2022-08-22T22:50:52.252Z,17.80
2022-08-22T22:53:21.237Z,17.80
2022-08-22T22:56:00.039Z,17.80
2022-08-22T22:58:28.153Z,17.80
2022-08-22T23:00:54.993Z,17.80
2022-08-22T23:03:22.050Z,17.80
2022-08-22T23:05:48.763Z,17.80
2022-08-22T23:08:15.454Z,17.80
2022-08-22T23:10:42.125Z,17.80
2022-08-22T23:13:09.250Z,17.70
2022-08-22T23:15:36.870Z,17.70
2022-08-22T23:18:03.627Z,17.70
2022-08-22T23:20:30.316Z,17.70
2022-08-22T23:22:57.250Z,17.70
2022-08-22T23:25:23.948Z,17.70
2022-08-22T23:27:58.990Z,17.60
2022-08-22T23:30:25.898Z,17.70
2022-08-22T23:32:52.640Z,17.60
2022-08-22T23:35:19.484Z,17.70
2022-08-22T23:37:46.224Z,17.60
2022-08-22T23:40:13.095Z,17.60
2022-08-22T23:42:39.800Z,17.60
2022-08-22T23:45:06.793Z,17.70
2022-08-22T23:47:33.538Z,17.70
2022-08-22T23:50:06.000Z,17.70
2022-08-22T23:52:33.543Z,17.70
2022-08-22T23:55:00.272Z,17.60
2022-08-22T23:57:27.569Z,17.60
2022-08-22T23:59:58.007Z,17.60
